createdAt,value
2018-12-23T00:00:25.571Z,89.87
2018-12-23T00:00:56.678Z,90.03
2018-12-23T00:01:27.913Z,90.16
2018-12-23T00:01:59.668Z,90.34
2018-12-23T00:02:30.801Z,90.49
2018-12-23T00:03:01.979Z,90.33
2018-12-23T00:03:36.891Z,90.11
2018-12-23T00:04:08.022Z,90.03
2018-12-23T00:04:39.145Z,89.60
2018-12-23T00:05:11.629Z,89.65
2018-12-23T00:05:43.019Z,89.17
2018-12-23T00:06:14.231Z,88.80
2018-12-23T00:06:46.264Z,88.98
2018-12-23T00:07:17.397Z,88.69
2018-12-23T00:07:48.543Z,88.80
2018-12-23T00:08:20.235Z,88.88
2018-12-23T00:08:51.342Z,89.05
2018-12-23T00:09:22.476Z,89.34
2018-12-23T00:09:54.261Z,89.33
2018-12-23T00:10:25.369Z,89.03
2018-12-23T00:10:57.056Z,88.93
2018-12-23T00:11:28.188Z,88.95
2018-12-23T00:11:59.328Z,88.70
2018-12-23T00:12:31.318Z,88.21
2018-12-23T00:13:03.215Z,87.61
2018-12-23T00:13:35.186Z,87.55
2018-12-23T00:14:06.302Z,86.76
2018-12-23T00:14:37.419Z,86.84
2018-12-23T00:15:09.601Z,86.70
2018-12-23T00:15:40.718Z,86.77
2018-12-23T00:16:11.830Z,86.45
2018-12-23T00:16:43.868Z,86.68
2018-12-23T00:17:15.091Z,86.44
2018-12-23T00:17:46.539Z,86.85
2018-12-23T00:18:17.667Z,86.84
2018-12-23T00:18:48.768Z,86.77
2018-12-23T00:19:19.936Z,86.83
2018-12-23T00:19:51.299Z,86.92
2018-12-23T00:20:23.578Z,86.73
2018-12-23T00:20:54.824Z,86.99
2018-12-23T00:21:25.928Z,86.63
2018-12-23T00:21:57.744Z,86.37
2018-12-23T00:22:28.919Z,86.27
2018-12-23T00:23:00.192Z,85.54
2018-12-23T00:23:31.304Z,85.52
2018-12-23T00:24:02.459Z,85.51
2018-12-23T00:24:33.577Z,85.59
2018-12-23T00:25:04.684Z,85.61
2018-12-23T00:25:35.801Z,85.42
2018-12-23T00:26:06.954Z,85.69
2018-12-23T00:26:38.082Z,85.77
2018-12-23T00:27:09.248Z,86.00
2018-12-23T00:27:41.532Z,85.92
2018-12-23T00:28:13.241Z,86.45
2018-12-23T00:28:44.345Z,86.35
2018-12-23T00:29:15.462Z,86.71
2018-12-23T00:29:46.580Z,86.59
2018-12-23T00:30:17.689Z,86.36
2018-12-23T00:30:49.848Z,86.01
2018-12-23T00:31:21.002Z,85.99
2018-12-23T00:31:52.156Z,85.54
2018-12-23T00:32:23.303Z,85.08
2018-12-23T00:32:54.486Z,85.37
2018-12-23T00:33:25.670Z,85.33
2018-12-23T00:33:57.416Z,85.29
2018-12-23T00:34:28.571Z,85.39
2018-12-23T00:34:59.712Z,85.02
2018-12-23T00:35:31.467Z,84.99
2018-12-23T00:36:02.594Z,84.93
2018-12-23T00:36:33.838Z,84.55
2018-12-23T00:37:04.957Z,84.36
2018-12-23T00:37:36.064Z,84.65
2018-12-23T00:38:07.280Z,84.53
2018-12-23T00:38:38.427Z,84.19
2018-12-23T00:39:09.581Z,84.28
2018-12-23T00:39:40.689Z,84.24
2018-12-23T00:40:11.799Z,83.67
2018-12-23T00:40:42.968Z,83.89
2018-12-23T00:41:15.339Z,83.79
2018-12-23T00:41:46.974Z,84.08
2018-12-23T00:42:18.165Z,84.14
2018-12-23T00:42:50.242Z,84.09
2018-12-23T00:43:21.391Z,83.98
2018-12-23T00:43:52.756Z,83.96
2018-12-23T00:44:23.861Z,83.87
2018-12-23T00:44:55.802Z,84.19
2018-12-23T00:45:27.431Z,83.91
2018-12-23T00:45:59.572Z,83.86
2018-12-23T00:46:31.223Z,83.96
2018-12-23T00:47:02.345Z,84.03
2018-12-23T00:47:33.444Z,84.08
2018-12-23T00:48:04.547Z,84.45
2018-12-23T00:48:35.943Z,84.51
2018-12-23T00:49:07.591Z,84.06
2018-12-23T00:49:39.633Z,84.47
2018-12-23T00:50:10.872Z,84.60
2018-12-23T00:50:44.229Z,84.26
2018-12-23T00:51:16.805Z,84.09
2018-12-23T00:51:47.917Z,83.67
2018-12-23T00:52:19.565Z,83.66
2018-12-23T00:52:51.384Z,83.67
2018-12-23T00:53:22.492Z,83.74
2018-12-23T00:53:53.605Z,83.34
2018-12-23T00:54:24.719Z,83.11
2018-12-23T00:54:55.901Z,83.34
2018-12-23T00:55:27.026Z,83.21
2018-12-23T00:55:58.136Z,83.27
2018-12-23T00:56:31.431Z,83.23
2018-12-23T00:57:02.601Z,83.37
2018-12-23T00:57:33.724Z,83.36
2018-12-23T00:58:04.837Z,83.19
2018-12-23T00:58:35.947Z,83.44
2018-12-23T00:59:07.596Z,83.60
2018-12-23T00:59:38.822Z,83.19
2018-12-23T01:00:09.947Z,82.95
2018-12-23T01:00:41.077Z,82.54
2018-12-23T01:01:12.955Z,82.88
2018-12-23T01:01:44.736Z,82.47
2018-12-23T01:02:15.852Z,83.18
2018-12-23T01:02:46.953Z,82.39
2018-12-23T01:03:18.060Z,82.70
2018-12-23T01:03:49.805Z,82.33
2018-12-23T01:04:24.058Z,82.66
2018-12-23T01:04:55.163Z,82.55
2018-12-23T01:05:28.842Z,82.55
2018-12-23T01:05:59.537Z,82.31
2018-12-23T01:06:30.644Z,82.23
2018-12-23T01:07:01.788Z,81.97
2018-12-23T01:07:32.937Z,81.37
2018-12-23T01:08:04.046Z,81.74
2018-12-23T01:08:35.205Z,81.68
2018-12-23T01:09:06.542Z,81.63
2018-12-23T01:09:38.912Z,82.07
2018-12-23T01:10:10.046Z,81.86
2018-12-23T01:10:41.166Z,82.59
2018-12-23T01:11:13.209Z,82.24
2018-12-23T01:11:44.375Z,82.29
2018-12-23T01:12:16.114Z,81.97
2018-12-23T01:12:47.997Z,81.99
2018-12-23T01:13:19.130Z,82.31
2018-12-23T01:13:50.284Z,82.67
2018-12-23T01:14:23.495Z,82.62
2018-12-23T01:14:55.194Z,82.57
2018-12-23T01:15:26.322Z,82.69
2018-12-23T01:15:57.426Z,82.37
2018-12-23T01:16:28.535Z,82.62
2018-12-23T01:17:00.413Z,82.46
2018-12-23T01:17:31.564Z,82.45
2018-12-23T01:18:03.275Z,82.29
2018-12-23T01:18:34.392Z,82.64
2018-12-23T01:19:05.577Z,82.61
2018-12-23T01:19:37.688Z,82.21
2018-12-23T01:20:08.921Z,82.10
2018-12-23T01:20:40.041Z,82.37
2018-12-23T01:21:11.150Z,82.45
2018-12-23T01:21:42.263Z,81.87
2018-12-23T01:22:14.598Z,81.78
2018-12-23T01:22:46.313Z,82.39
2018-12-23T01:23:17.424Z,82.72
2018-12-23T01:23:48.686Z,82.97
2018-12-23T01:24:19.880Z,83.21
2018-12-23T01:24:51.987Z,83.23
2018-12-23T01:25:24.007Z,83.27
2018-12-23T01:25:56.282Z,82.93
2018-12-23T01:26:27.400Z,82.93
2018-12-23T01:26:59.424Z,82.10
2018-12-23T01:27:30.636Z,82.60
2018-12-23T01:28:01.997Z,82.53
2018-12-23T01:28:33.124Z,82.54
2018-12-23T01:29:04.776Z,82.75
2018-12-23T01:29:35.946Z,82.82
2018-12-23T01:30:07.048Z,83.42
2018-12-23T01:30:38.154Z,83.24
2018-12-23T01:31:10.201Z,83.44
2018-12-23T01:31:41.393Z,83.58
2018-12-23T01:32:12.511Z,83.55
2018-12-23T01:32:44.921Z,83.53
2018-12-23T01:33:16.384Z,83.65
2018-12-23T01:33:47.574Z,83.72
2018-12-23T01:34:18.696Z,83.33
2018-12-23T01:34:49.859Z,83.45
2018-12-23T01:35:21.034Z,83.34
2018-12-23T01:35:52.240Z,83.37
2018-12-23T01:36:23.350Z,83.46
2018-12-23T01:36:54.755Z,83.92
2018-12-23T01:37:25.917Z,83.63
2018-12-23T01:37:57.040Z,83.48
2018-12-23T01:38:29.020Z,83.27
2018-12-23T01:39:00.616Z,82.90
2018-12-23T01:39:31.776Z,82.96
2018-12-23T01:40:02.884Z,82.60
2018-12-23T01:40:34.133Z,82.52
2018-12-23T01:41:05.245Z,82.26
2018-12-23T01:41:37.625Z,82.48
2018-12-23T01:42:09.321Z,82.41
2018-12-23T01:42:40.432Z,83.00
2018-12-23T01:43:11.589Z,82.71
2018-12-23T01:43:42.689Z,83.35
2018-12-23T01:44:13.931Z,83.06
2018-12-23T01:44:45.039Z,82.67
2018-12-23T01:45:16.767Z,82.36
2018-12-23T01:45:48.811Z,82.53
2018-12-23T01:46:19.940Z,82.91
2018-12-23T01:46:51.091Z,83.25
2018-12-23T01:47:22.197Z,82.58
2018-12-23T01:47:53.384Z,82.49
2018-12-23T01:48:24.628Z,82.91
2018-12-23T01:48:55.947Z,83.30
2018-12-23T01:49:27.098Z,82.78
2018-12-23T01:49:58.344Z,82.95
2018-12-23T01:50:29.441Z,83.44
2018-12-23T01:51:00.596Z,83.72
2018-12-23T01:51:31.728Z,83.68
2018-12-23T01:52:02.847Z,83.68
2018-12-23T01:52:33.955Z,83.19
2018-12-23T01:53:05.048Z,83.49
2018-12-23T01:53:36.215Z,83.16
2018-12-23T01:54:07.337Z,83.26
2018-12-23T01:54:38.492Z,83.47
2018-12-23T01:55:09.598Z,83.57
2018-12-23T01:55:40.808Z,83.67
2018-12-23T01:56:11.911Z,83.58
2018-12-23T01:56:43.768Z,83.40
2018-12-23T01:57:15.444Z,83.16
2018-12-23T01:57:46.551Z,83.19
2018-12-23T01:58:17.670Z,82.71
2018-12-23T01:58:48.756Z,81.66
2018-12-23T01:59:19.876Z,81.12
2018-12-23T01:59:51.020Z,80.56
2018-12-23T02:00:23.030Z,79.81
2018-12-23T02:00:54.120Z,79.60
2018-12-23T02:01:25.228Z,78.88
2018-12-23T02:01:56.426Z,78.42
2018-12-23T02:02:27.577Z,78.50
2018-12-23T02:02:58.672Z,79.17
2018-12-23T02:03:29.760Z,79.03
2018-12-23T02:04:00.857Z,79.47
2018-12-23T02:04:32.103Z,79.96
2018-12-23T02:05:03.212Z,80.69
2018-12-23T02:05:34.951Z,81.02
2018-12-23T02:06:06.199Z,81.89
2018-12-23T02:06:38.489Z,81.64
2018-12-23T02:07:09.590Z,81.32
2018-12-23T02:07:40.730Z,81.60
2018-12-23T02:08:12.869Z,81.61
2018-12-23T02:08:44.002Z,81.29
2018-12-23T02:09:15.096Z,81.38
2018-12-23T02:09:46.200Z,81.01
2018-12-23T02:10:18.358Z,81.26
2018-12-23T02:10:49.461Z,81.23
2018-12-23T02:11:20.562Z,81.86
2018-12-23T02:11:51.829Z,82.27
2018-12-23T02:12:23.012Z,82.33
2018-12-23T02:12:54.140Z,82.27
2018-12-23T02:13:25.296Z,82.72
2018-12-23T02:13:56.404Z,82.62
2018-12-23T02:14:28.421Z,82.65
2018-12-23T02:14:59.648Z,83.03
2018-12-23T02:15:31.552Z,82.94
2018-12-23T02:16:03.684Z,83.53
2018-12-23T02:16:34.777Z,83.39
2018-12-23T02:17:06.646Z,83.32
2018-12-23T02:17:37.754Z,83.13
2018-12-23T02:18:08.880Z,83.51
2018-12-23T02:18:39.988Z,83.26
2018-12-23T02:19:11.191Z,83.37
2018-12-23T02:19:42.535Z,83.07
2018-12-23T02:20:13.643Z,83.30
2018-12-23T02:20:44.822Z,82.76
2018-12-23T02:21:16.086Z,82.76
2018-12-23T02:21:47.243Z,82.07
2018-12-23T02:22:19.197Z,81.65
2018-12-23T02:22:51.288Z,81.91
2018-12-23T02:23:22.391Z,81.66
2018-12-23T02:23:54.395Z,81.48
2018-12-23T02:24:25.535Z,80.85
2018-12-23T02:24:56.652Z,80.29
2018-12-23T02:25:27.763Z,79.99
2018-12-23T02:25:59.757Z,80.37
2018-12-23T02:26:30.964Z,79.91
2018-12-23T02:27:02.063Z,79.62
2018-12-23T02:27:33.161Z,79.37
2018-12-23T02:28:05.267Z,78.67
2018-12-23T02:28:37.354Z,78.65
2018-12-23T02:29:09.538Z,77.98
2018-12-23T02:29:40.710Z,77.88
2018-12-23T02:30:11.842Z,77.54
2018-12-23T02:30:42.935Z,77.10
2018-12-23T02:31:14.589Z,76.59
2018-12-23T02:31:45.701Z,76.00
2018-12-23T02:32:17.014Z,75.92
2018-12-23T02:32:49.278Z,75.59
2018-12-23T02:33:21.203Z,75.20
2018-12-23T02:33:53.076Z,74.53
2018-12-23T02:34:24.178Z,74.39
2018-12-23T02:34:55.319Z,74.48
2018-12-23T02:35:26.430Z,73.96
2018-12-23T02:35:57.581Z,73.52
2018-12-23T02:36:29.317Z,73.06
2018-12-23T02:37:00.421Z,72.96
2018-12-23T02:37:31.525Z,72.41
2018-12-23T02:38:02.644Z,72.17
2018-12-23T02:38:34.273Z,71.81
2018-12-23T02:39:05.360Z,72.06
2018-12-23T02:39:37.111Z,70.88
2018-12-23T02:40:08.233Z,70.98
2018-12-23T02:40:39.328Z,71.05
2018-12-23T02:41:10.468Z,70.75
2018-12-23T02:41:41.603Z,70.70
2018-12-23T02:42:12.955Z,70.52
2018-12-23T02:42:44.080Z,70.81
2018-12-23T02:43:15.191Z,69.61
2018-12-23T02:43:46.459Z,69.69
2018-12-23T02:44:19.636Z,68.66
2018-12-23T02:44:50.734Z,68.94
2018-12-23T02:45:21.830Z,69.12
2018-12-23T02:45:52.920Z,69.23
2018-12-23T02:46:24.016Z,68.99
2018-12-23T02:46:55.121Z,69.05
2018-12-23T02:47:26.264Z,69.04
2018-12-23T02:47:57.374Z,68.53
2018-12-23T02:48:28.473Z,68.91
2018-12-23T02:48:59.618Z,68.39
2018-12-23T02:49:30.721Z,67.57
2018-12-23T02:50:01.819Z,67.97
2018-12-23T02:50:32.916Z,68.10
2018-12-23T02:51:04.163Z,67.70
2018-12-23T02:51:35.328Z,67.20
2018-12-23T02:52:06.426Z,67.59
2018-12-23T02:52:37.568Z,67.12
2018-12-23T02:53:08.696Z,67.04
2018-12-23T02:53:39.801Z,67.25
2018-12-23T02:54:10.891Z,66.91
2018-12-23T02:54:42.035Z,67.23
2018-12-23T02:55:13.140Z,67.02
2018-12-23T02:55:44.233Z,67.26
2018-12-23T02:56:15.331Z,66.48
2018-12-23T02:56:46.445Z,66.51
2018-12-23T02:57:17.570Z,66.37
2018-12-23T02:57:48.671Z,66.58
2018-12-23T02:58:19.777Z,66.51
2018-12-23T02:58:50.877Z,66.41
2018-12-23T02:59:21.978Z,66.24
2018-12-23T02:59:53.113Z,66.68
2018-12-23T03:00:24.220Z,66.35
2018-12-23T03:00:55.325Z,66.41
2018-12-23T03:01:26.429Z,66.45
2018-12-23T03:01:57.530Z,66.23
2018-12-23T03:02:28.632Z,66.20
2018-12-23T03:02:59.730Z,65.99
2018-12-23T03:03:30.827Z,66.24
2018-12-23T03:04:01.924Z,66.40
2018-12-23T03:04:33.029Z,66.12
2018-12-23T03:05:04.164Z,66.04
2018-12-23T03:05:35.259Z,66.31
2018-12-23T03:06:06.545Z,65.87
2018-12-23T03:06:37.732Z,66.24
2018-12-23T03:07:08.834Z,65.77
2018-12-23T03:07:39.980Z,65.32
2018-12-23T03:08:11.090Z,65.38
2018-12-23T03:08:42.205Z,65.10
2018-12-23T03:09:13.297Z,64.56
2018-12-23T03:09:44.397Z,64.85
2018-12-23T03:10:15.512Z,64.61
2018-12-23T03:10:46.605Z,64.55
2018-12-23T03:11:17.711Z,64.65
2018-12-23T03:11:48.848Z,64.32
2018-12-23T03:12:19.952Z,64.39
2018-12-23T03:12:51.060Z,64.62
2018-12-23T03:13:22.161Z,64.35
2018-12-23T03:13:53.264Z,64.22
2018-12-23T03:14:24.372Z,64.00
2018-12-23T03:14:55.671Z,63.77
2018-12-23T03:15:26.922Z,64.05
2018-12-23T03:15:58.728Z,63.77
2018-12-23T03:16:29.841Z,63.71
2018-12-23T03:17:00.987Z,63.94
2018-12-23T03:17:32.095Z,63.81
2018-12-23T03:18:03.231Z,63.75
2018-12-23T03:18:34.405Z,64.06
2018-12-23T03:19:05.495Z,63.60
2018-12-23T03:19:36.597Z,63.38
2018-12-23T03:20:07.698Z,63.69
2018-12-23T03:20:38.813Z,63.56
2018-12-23T03:21:09.901Z,63.54
2018-12-23T03:21:41.045Z,63.26
2018-12-23T03:22:12.143Z,63.08
2018-12-23T03:22:43.239Z,63.01
2018-12-23T03:23:14.333Z,63.71
2018-12-23T03:23:45.434Z,63.93
2018-12-23T03:24:16.535Z,63.73
2018-12-23T03:24:47.637Z,64.12
2018-12-23T03:25:18.744Z,64.24
2018-12-23T03:25:49.888Z,64.37
2018-12-23T03:26:20.996Z,64.17
2018-12-23T03:26:52.233Z,64.30
2018-12-23T03:27:23.343Z,64.34
2018-12-23T03:27:54.440Z,64.31
2018-12-23T03:28:25.529Z,64.55
2018-12-23T03:28:56.627Z,64.48
2018-12-23T03:29:27.815Z,64.77
2018-12-23T03:29:58.924Z,64.49
2018-12-23T03:30:30.036Z,64.65
2018-12-23T03:31:01.353Z,64.63
2018-12-23T03:31:32.525Z,65.15
2018-12-23T03:32:03.796Z,65.21
2018-12-23T03:32:35.007Z,65.52
2018-12-23T03:33:06.109Z,65.22
2018-12-23T03:33:37.213Z,65.75
2018-12-23T03:34:08.312Z,65.59
2018-12-23T03:34:39.405Z,65.39
2018-12-23T03:35:10.508Z,65.52
2018-12-23T03:35:41.600Z,65.37
2018-12-23T03:36:15.202Z,66.02
2018-12-23T03:36:45.808Z,65.96
2018-12-23T03:37:16.934Z,66.42
2018-12-23T03:37:48.032Z,65.98
2018-12-23T03:38:19.141Z,65.98
2018-12-23T03:38:50.227Z,66.21
2018-12-23T03:39:21.321Z,66.09
2018-12-23T03:39:52.419Z,66.03
2018-12-23T03:40:23.510Z,66.32
2018-12-23T03:40:54.612Z,66.12
2018-12-23T03:41:25.714Z,65.87
2018-12-23T03:41:56.873Z,66.11
2018-12-23T03:42:28.004Z,65.85
2018-12-23T03:42:59.101Z,65.09
2018-12-23T03:43:30.215Z,65.80
2018-12-23T03:44:01.312Z,64.94
2018-12-23T03:44:32.409Z,65.49
2018-12-23T03:45:03.510Z,65.19
2018-12-23T03:45:34.611Z,64.96
2018-12-23T03:46:05.708Z,64.83
2018-12-23T03:46:36.805Z,64.70
2018-12-23T03:47:07.951Z,64.54
2018-12-23T03:47:39.052Z,65.27
2018-12-23T03:48:10.166Z,64.91
2018-12-23T03:48:41.265Z,64.82
2018-12-23T03:49:12.372Z,64.83
2018-12-23T03:49:43.467Z,64.70
2018-12-23T03:50:14.567Z,64.56
2018-12-23T03:50:45.673Z,64.81
2018-12-23T03:51:16.767Z,64.48
2018-12-23T03:51:47.860Z,64.46
2018-12-23T03:52:18.986Z,64.77
2018-12-23T03:52:50.100Z,64.46
2018-12-23T03:53:21.460Z,64.63
2018-12-23T03:53:52.553Z,64.63
2018-12-23T03:54:23.642Z,64.87
2018-12-23T03:54:54.741Z,64.39
2018-12-23T03:55:25.851Z,64.23
2018-12-23T03:55:56.960Z,64.02
2018-12-23T03:56:28.063Z,64.56
2018-12-23T03:56:59.160Z,64.25
2018-12-23T03:57:30.264Z,64.84
2018-12-23T03:58:01.375Z,64.57
2018-12-23T03:58:32.513Z,65.02
2018-12-23T03:59:04.694Z,64.62
2018-12-23T03:59:35.804Z,64.67
2018-12-23T04:00:07.191Z,64.62
2018-12-23T04:00:38.291Z,65.11
2018-12-23T04:01:11.086Z,64.86
2018-12-23T04:01:42.208Z,65.35
2018-12-23T04:02:13.317Z,65.82
2018-12-23T04:02:44.411Z,65.59
2018-12-23T04:03:15.512Z,65.40
2018-12-23T04:03:46.681Z,65.19
2018-12-23T04:04:18.639Z,65.11
2018-12-23T04:04:50.995Z,65.11
2018-12-23T04:05:22.094Z,65.17
2018-12-23T04:05:53.195Z,64.73
2018-12-23T04:06:24.971Z,64.91
2018-12-23T04:06:56.339Z,65.17
2018-12-23T04:07:27.481Z,65.33
2018-12-23T04:07:58.690Z,65.31
2018-12-23T04:08:29.918Z,64.50
2018-12-23T04:09:01.043Z,64.77
2018-12-23T04:09:32.248Z,64.36
2018-12-23T04:10:03.353Z,64.55
2018-12-23T04:10:34.634Z,64.29
2018-12-23T04:11:05.740Z,64.22
2018-12-23T04:11:36.835Z,64.12
2018-12-23T04:12:07.941Z,63.65
2018-12-23T04:12:39.079Z,63.94
2018-12-23T04:13:10.183Z,63.99
2018-12-23T04:13:41.272Z,63.44
2018-12-23T04:14:12.384Z,63.74
2018-12-23T04:14:43.488Z,63.50
2018-12-23T04:15:14.632Z,63.47
2018-12-23T04:15:45.792Z,63.49
2018-12-23T04:16:16.891Z,63.74
2018-12-23T04:16:48.120Z,63.74
2018-12-23T04:17:19.291Z,63.50
2018-12-23T04:17:50.438Z,63.75
2018-12-23T04:18:21.535Z,63.78
2018-12-23T04:18:52.652Z,63.67
2018-12-23T04:19:23.744Z,63.61
2018-12-23T04:19:54.847Z,63.73
2018-12-23T04:20:25.944Z,63.77
2018-12-23T04:20:57.040Z,64.21
2018-12-23T04:21:28.154Z,63.61
2018-12-23T04:21:59.265Z,63.05
2018-12-23T04:22:30.377Z,63.08
2018-12-23T04:23:01.507Z,63.80
2018-12-23T04:23:32.610Z,63.15
2018-12-23T04:24:03.709Z,63.86
2018-12-23T04:24:34.800Z,63.86
2018-12-23T04:25:05.915Z,63.30
2018-12-23T04:25:37.028Z,63.40
2018-12-23T04:26:08.212Z,62.82
2018-12-23T04:26:39.313Z,63.05
2018-12-23T04:27:10.415Z,62.93
2018-12-23T04:27:41.526Z,62.65
2018-12-23T04:28:12.714Z,62.81
2018-12-23T04:28:43.821Z,62.59
2018-12-23T04:29:15.221Z,62.43
2018-12-23T04:29:46.343Z,62.69
2018-12-23T04:30:17.445Z,62.35
2018-12-23T04:30:48.577Z,62.22
2018-12-23T04:31:19.693Z,61.84
2018-12-23T04:31:50.785Z,61.91
2018-12-23T04:32:21.949Z,61.75
2018-12-23T04:32:53.278Z,61.56
2018-12-23T04:33:24.417Z,61.87
2018-12-23T04:33:55.527Z,61.99
2018-12-23T04:34:26.631Z,62.00
2018-12-23T04:34:57.737Z,61.79
2018-12-23T04:35:30.991Z,61.83
2018-12-23T04:36:02.089Z,62.44
2018-12-23T04:36:34.188Z,62.12
2018-12-23T04:37:05.663Z,62.44
2018-12-23T04:37:36.787Z,62.35
2018-12-23T04:38:07.901Z,62.49
2018-12-23T04:38:39.044Z,62.72
2018-12-23T04:39:10.223Z,62.34
2018-12-23T04:39:41.318Z,63.08
2018-12-23T04:40:12.412Z,63.02
2018-12-23T04:40:43.518Z,62.86
2018-12-23T04:41:14.834Z,62.66
2018-12-23T04:41:45.971Z,62.97
2018-12-23T04:42:17.074Z,63.13
2018-12-23T04:42:48.231Z,63.44
2018-12-23T04:43:19.329Z,63.63
2018-12-23T04:43:51.721Z,62.84
2018-12-23T04:44:22.876Z,63.65
2018-12-23T04:44:54.773Z,63.29
2018-12-23T04:45:25.917Z,63.20
2018-12-23T04:45:57.014Z,62.65
2018-12-23T04:46:28.110Z,62.34
2018-12-23T04:46:59.340Z,62.35
2018-12-23T04:47:30.525Z,62.35
2018-12-23T04:48:01.656Z,62.31
2018-12-23T04:48:32.761Z,62.96
2018-12-23T04:49:03.938Z,62.28
2018-12-23T04:49:35.081Z,62.52
2018-12-23T04:50:06.179Z,62.70
2018-12-23T04:50:37.306Z,62.70
2018-12-23T04:51:08.976Z,62.71
2018-12-23T04:51:40.152Z,62.31
2018-12-23T04:52:11.264Z,62.62
2018-12-23T04:52:42.401Z,62.72
2018-12-23T04:53:13.504Z,62.99
2018-12-23T04:53:45.645Z,62.86
2018-12-23T04:54:16.754Z,63.06
2018-12-23T04:54:47.934Z,63.16
2018-12-23T04:55:19.072Z,62.90
2018-12-23T04:55:51.203Z,62.85
2018-12-23T04:56:22.314Z,62.53
2018-12-23T04:56:53.417Z,62.95
2018-12-23T04:57:24.510Z,62.60
2018-12-23T04:57:55.626Z,62.54
2018-12-23T04:58:27.371Z,62.73
2018-12-23T04:58:58.476Z,62.15
2018-12-23T04:59:29.643Z,62.56
2018-12-23T05:00:00.780Z,62.31
2018-12-23T05:00:31.881Z,62.14
2018-12-23T05:01:40.534Z,62.41
2018-12-23T05:02:11.640Z,62.40
2018-12-23T05:02:42.749Z,62.47
2018-12-23T05:03:13.871Z,62.58
2018-12-23T05:03:45.002Z,62.20
2018-12-23T05:04:16.131Z,62.59
2018-12-23T05:04:47.803Z,62.28
2018-12-23T05:05:18.922Z,62.28
2018-12-23T05:05:50.069Z,62.19
2018-12-23T05:06:21.246Z,62.39
2018-12-23T05:06:52.485Z,62.24
2018-12-23T05:07:23.595Z,62.95
2018-12-23T05:07:54.701Z,62.63
2018-12-23T05:08:25.855Z,62.62
2018-12-23T05:08:57.013Z,62.91
2018-12-23T05:09:28.141Z,62.92
2018-12-23T05:09:59.265Z,63.17
2018-12-23T05:10:30.377Z,63.10
2018-12-23T05:11:01.485Z,62.65
2018-12-23T05:11:32.592Z,62.87
2018-12-23T05:12:03.696Z,62.70
2018-12-23T05:12:34.800Z,62.68
2018-12-23T05:13:05.944Z,62.72
2018-12-23T05:13:37.197Z,62.72
2018-12-23T05:14:08.449Z,62.56
2018-12-23T05:14:39.590Z,62.64
2018-12-23T05:15:10.866Z,63.04
2018-12-23T05:15:41.971Z,62.31
2018-12-23T05:16:13.119Z,63.09
2018-12-23T05:16:44.326Z,62.82
2018-12-23T05:17:15.429Z,63.02
2018-12-23T05:17:46.588Z,62.65
2018-12-23T05:18:17.692Z,62.79
2018-12-23T05:18:48.790Z,62.74
2018-12-23T05:19:19.895Z,62.51
2018-12-23T05:19:51.006Z,62.54
2018-12-23T05:20:22.143Z,62.44
2018-12-23T05:20:53.450Z,62.66
2018-12-23T05:21:24.557Z,62.37
2018-12-23T05:21:55.660Z,62.56
2018-12-23T05:22:26.757Z,62.58
2018-12-23T05:22:57.854Z,62.95
2018-12-23T05:23:28.957Z,62.63
2018-12-23T05:24:00.111Z,62.75
2018-12-23T05:24:31.208Z,62.86
2018-12-23T05:25:02.297Z,62.84
2018-12-23T05:25:33.423Z,62.90
2018-12-23T05:26:04.511Z,62.57
2018-12-23T05:26:36.813Z,63.34
2018-12-23T05:27:07.920Z,63.10
2018-12-23T05:27:39.003Z,63.60
2018-12-23T05:28:10.096Z,63.39
2018-12-23T05:28:41.189Z,63.38
2018-12-23T05:29:12.286Z,63.75
2018-12-23T05:29:43.431Z,63.74
2018-12-23T05:30:14.541Z,63.81
2018-12-23T05:30:45.637Z,63.31
2018-12-23T05:31:16.732Z,63.71
2018-12-23T05:31:47.837Z,63.38
2018-12-23T05:32:19.008Z,63.70
2018-12-23T05:32:50.108Z,63.34
2018-12-23T05:33:21.223Z,63.61
2018-12-23T05:33:52.325Z,63.67
2018-12-23T05:34:24.142Z,63.65
2018-12-23T05:34:55.284Z,63.42
2018-12-23T05:35:26.401Z,63.29
2018-12-23T05:35:57.488Z,63.74
2018-12-23T05:36:28.607Z,63.70
2018-12-23T05:36:59.696Z,63.35
2018-12-23T05:37:30.874Z,63.41
2018-12-23T05:38:01.978Z,63.10
2018-12-23T05:38:33.083Z,63.40
2018-12-23T05:39:04.184Z,63.65
2018-12-23T05:39:35.276Z,63.50
2018-12-23T05:40:06.404Z,63.86
2018-12-23T05:40:37.505Z,63.68
2018-12-23T05:41:08.639Z,63.80
2018-12-23T05:41:39.821Z,63.69
2018-12-23T05:42:10.929Z,64.11
2018-12-23T05:42:42.100Z,64.08
2018-12-23T05:43:13.238Z,64.46
2018-12-23T05:43:44.336Z,64.36
2018-12-23T05:44:15.448Z,64.34
2018-12-23T05:44:46.545Z,64.45
2018-12-23T05:45:17.668Z,64.39
2018-12-23T05:45:48.914Z,64.25
2018-12-23T05:46:20.064Z,64.61
2018-12-23T05:46:51.192Z,64.72
2018-12-23T05:47:22.284Z,64.81
2018-12-23T05:47:53.382Z,64.78
2018-12-23T05:48:24.540Z,64.63
2018-12-23T05:48:55.657Z,64.93
2018-12-23T05:49:26.756Z,64.92
2018-12-23T05:49:57.897Z,64.60
2018-12-23T05:50:28.996Z,64.93
2018-12-23T05:51:00.088Z,64.95
2018-12-23T05:51:31.718Z,65.00
2018-12-23T05:52:02.829Z,64.75
2018-12-23T05:52:33.931Z,65.37
2018-12-23T05:53:05.076Z,65.54
2018-12-23T05:53:36.221Z,65.45
2018-12-23T05:54:07.328Z,65.21
2018-12-23T05:54:38.473Z,65.07
2018-12-23T05:55:09.611Z,65.47
2018-12-23T05:55:40.754Z,65.43
2018-12-23T05:56:11.866Z,65.07
2018-12-23T05:56:43.035Z,64.75
2018-12-23T05:57:14.141Z,65.08
2018-12-23T05:57:45.246Z,65.13
2018-12-23T05:58:16.347Z,65.00
2018-12-23T05:58:47.458Z,65.35
2018-12-23T05:59:18.565Z,65.46
2018-12-23T05:59:49.721Z,65.46
2018-12-23T06:00:20.835Z,65.54
2018-12-23T06:00:51.936Z,65.27
2018-12-23T06:01:23.064Z,65.57
2018-12-23T06:01:54.176Z,65.39
2018-12-23T06:02:25.273Z,64.95
2018-12-23T06:02:56.397Z,65.13
2018-12-23T06:03:27.552Z,65.11
2018-12-23T06:03:58.737Z,65.06
2018-12-23T06:04:29.842Z,64.77
2018-12-23T06:05:01.008Z,65.20
2018-12-23T06:05:32.152Z,65.48
2018-12-23T06:06:03.265Z,65.55
2018-12-23T06:06:34.380Z,66.16
2018-12-23T06:07:05.511Z,65.71
2018-12-23T06:07:36.653Z,66.26
2018-12-23T06:08:07.749Z,65.96
2018-12-23T06:08:38.849Z,66.59
2018-12-23T06:09:09.938Z,67.23
2018-12-23T06:09:41.046Z,66.56
2018-12-23T06:10:13.204Z,66.96
2018-12-23T06:10:44.993Z,67.02
2018-12-23T06:11:16.084Z,67.06
2018-12-23T06:11:47.192Z,67.14
2018-12-23T06:12:18.284Z,67.13
2018-12-23T06:12:49.417Z,67.22
2018-12-23T06:13:20.525Z,67.46
2018-12-23T06:13:51.673Z,66.90
2018-12-23T06:14:22.768Z,67.01
2018-12-23T06:14:53.900Z,67.46
2018-12-23T06:15:25.031Z,67.35
2018-12-23T06:15:56.124Z,67.40
2018-12-23T06:16:27.336Z,67.38
2018-12-23T06:16:58.455Z,67.25
2018-12-23T06:17:29.593Z,67.35
2018-12-23T06:18:00.704Z,67.17
2018-12-23T06:18:31.857Z,67.22
2018-12-23T06:19:02.963Z,67.23
2018-12-23T06:19:34.185Z,67.69
2018-12-23T06:20:05.316Z,67.61
2018-12-23T06:20:36.404Z,67.67
2018-12-23T06:21:07.517Z,67.66
2018-12-23T06:21:38.612Z,67.72
2018-12-23T06:22:09.704Z,67.74
2018-12-23T06:22:40.795Z,67.37
2018-12-23T06:23:11.876Z,67.64
2018-12-23T06:23:43.013Z,67.45
2018-12-23T06:24:14.117Z,67.73
2018-12-23T06:24:45.214Z,67.76
2018-12-23T06:25:16.334Z,67.77
2018-12-23T06:25:47.436Z,67.36
2018-12-23T06:26:18.535Z,67.37
2018-12-23T06:26:49.625Z,67.16
2018-12-23T06:27:20.725Z,67.28
2018-12-23T06:27:51.820Z,67.09
2018-12-23T06:28:22.926Z,66.67
2018-12-23T06:28:54.057Z,66.63
2018-12-23T06:29:25.148Z,66.54
2018-12-23T06:29:56.247Z,66.36
2018-12-23T06:30:27.344Z,66.36
2018-12-23T06:30:58.441Z,66.18
2018-12-23T06:31:29.537Z,65.71
2018-12-23T06:32:00.630Z,65.69
2018-12-23T06:32:31.721Z,65.77
2018-12-23T06:33:02.824Z,65.73
2018-12-23T06:33:33.926Z,65.60
2018-12-23T06:34:05.080Z,65.13
2018-12-23T06:34:36.172Z,65.07
2018-12-23T06:35:07.264Z,65.05
2018-12-23T06:35:38.386Z,65.12
2018-12-23T06:36:09.493Z,64.63
2018-12-23T06:36:40.588Z,64.46
2018-12-23T06:37:11.902Z,64.03
2018-12-23T06:37:43.017Z,64.57
2018-12-23T06:38:14.115Z,63.93
2018-12-23T06:38:45.220Z,64.16
2018-12-23T06:39:16.344Z,64.26
2018-12-23T06:39:47.441Z,64.07
2018-12-23T06:40:18.546Z,64.28
2018-12-23T06:40:49.647Z,64.34
2018-12-23T06:41:20.746Z,64.13
2018-12-23T06:41:51.851Z,64.05
2018-12-23T06:42:22.958Z,64.24
2018-12-23T06:42:54.049Z,63.69
2018-12-23T06:43:25.142Z,63.33